Time;durP1;ratioP1;P1;durP2;ratioP2;P2;SDS_P1;SDS_P2;PMS_P1;PMS_P2;Temp;Humidity;BMP_temperature;BMP_pressure;BME280_temperature;BME280_humidity;BME280_pressure;Samples;Min_cycle;Max_cycle;Signal;HPM_P1;HPM_P2
2023/01/29 00:01:29;;;;;;;13.50;7.22;;;3.30;99.90;;;;;;5021188;28;20124;-37
2023/01/29 00:03:55;;;;;;;14.00;6.50;;;3.30;99.90;;;;;;5032837;28;20130;-38
2023/01/29 00:06:22;;;;;;;12.98;6.78;;;3.30;99.90;;;;;;5038014;28;20499;-38
2023/01/29 00:08:48;;;;;;;12.98;7.15;;;3.30;99.90;;;;;;5036706;28;20048;-39
2023/01/29 00:11:15;;;;;;;11.48;6.25;;;3.30;99.90;;;;;;5039077;28;20758;-38
2023/01/29 00:13:41;;;;;;;13.32;6.72;;;3.30;99.90;;;;;;5040562;28;20052;-37
2023/01/29 00:16:07;;;;;;;11.00;5.93;;;3.30;99.90;;;;;;5036484;28;20049;-38
2023/01/29 00:18:37;;;;;;;11.90;6.53;;;3.30;99.90;;;;;;5041276;28;20032;-37
2023/01/29 00:21:07;;;;;;;13.15;7.22;;;3.30;99.90;;;;;;5044040;28;20037;-43
2023/01/29 00:23:32;;;;;;;16.08;6.50;;;3.40;99.90;;;;;;5041976;28;20422;-38
2023/01/29 00:26:01;;;;;;;12.68;6.90;;;3.30;99.90;;;;;;5023852;28;20037;-38
2023/01/29 00:28:27;;;;;;;11.25;6.60;;;3.30;99.90;;;;;;5043865;28;20037;-37
2023/01/29 00:30:52;;;;;;;12.27;6.72;;;3.30;99.90;;;;;;5044421;28;20049;-41
2023/01/29 00:33:18;;;;;;;12.18;7.07;;;3.40;99.90;;;;;;5040270;28;20731;-37
2023/01/29 00:35:44;;;;;;;11.45;6.03;;;3.40;99.90;;;;;;5049780;28;20074;-39
2023/01/29 00:38:09;;;;;;;13.52;6.55;;;3.40;99.90;;;;;;5048925;28;20048;-37
2023/01/29 00:46:09;;;;;;;13.30;6.72;;;3.40;99.90;;;;;;5046595;28;20048;-37
2023/01/29 00:48:35;;;;;;;13.13;6.10;;;3.40;99.90;;;;;;5050230;28;20033;-36
2023/01/29 00:51:02;;;;;;;12.45;7.22;;;3.40;99.90;;;;;;5042263;28;20041;-37
2023/01/29 00:53:28;;;;;;;11.65;5.97;;;3.40;99.90;;;;;;5044039;28;20462;-38
2023/01/29 00:55:54;;;;;;;10.88;6.25;;;3.40;99.90;;;;;;5046909;28;20127;-36
2023/01/29 00:58:21;;;;;;;11.73;6.68;;;3.40;99.90;;;;;;5042248;28;20039;-36
2023/01/29 01:00:50;;;;;;;15.38;6.55;;;3.50;99.90;;;;;;5028300;28;20041;-36
2023/01/29 01:03:16;;;;;;;14.50;6.13;;;3.50;99.90;;;;;;5041786;28;20068;-41
2023/01/29 01:05:42;;;;;;;12.93;7.35;;;3.50;99.90;;;;;;5020287;28;20061;-40
2023/01/29 01:11:06;;;;;;;12.10;6.60;;;3.50;99.90;;;;;;5045542;28;20124;-40
2023/01/29 01:13:33;;;;;;;14.25;5.85;;;3.50;99.90;;;;;;5036257;28;20044;-36
2023/01/29 01:15:59;;;;;;;9.65;5.60;;;3.50;99.90;;;;;;5040431;28;21417;-36
2023/01/29 01:18:27;;;;;;;11.98;6.90;;;3.50;99.90;;;;;;5040150;28;20046;-38
2023/01/29 01:20:56;;;;;;;13.43;6.80;;;3.50;99.90;;;;;;5039391;28;20060;-38
2023/01/29 01:23:22;;;;;;;13.07;6.45;;;3.50;99.90;;;;;;5036630;28;20040;-37
2023/01/29 01:25:48;;;;;;;12.18;7.35;;;3.40;99.90;;;;;;5034760;28;20056;-37
2023/01/29 01:28:14;;;;;;;11.68;6.20;;;3.40;99.90;;;;;;5035716;28;21215;-37
2023/01/29 01:30:40;;;;;;;11.00;6.10;;;3.50;99.90;;;;;;5039609;28;20566;-36
2023/01/29 01:33:05;;;;;;;11.77;5.82;;;3.50;99.90;;;;;;5034648;28;20041;-38
2023/01/29 01:35:31;;;;;;;11.50;5.95;;;3.50;99.90;;;;;;5042360;28;21260;-36
2023/01/29 01:37:57;;;;;;;12.55;6.13;;;3.50;99.90;;;;;;5044079;28;20069;-37
2023/01/29 01:40:24;;;;;;;11.70;6.32;;;3.50;99.90;;;;;;5044072;28;20497;-36
2023/01/29 01:42:56;;;;;;;12.20;6.75;;;3.50;99.90;;;;;;5035902;28;20036;-37
2023/01/29 01:45:29;;;;;;;10.73;6.20;;;3.50;99.90;;;;;;5044377;28;20041;-36
2023/01/29 01:48:04;;;;;;;10.93;6.82;;;3.50;99.90;;;;;;5044430;28;20090;-37
2023/01/29 01:51:02;;;;;;;11.77;6.20;;;3.50;99.90;;;;;;5046062;28;20049;-36
2023/01/29 01:53:33;;;;;;;12.52;6.53;;;3.60;99.90;;;;;;5041061;28;20084;-36
2023/01/29 01:56:02;;;;;;;12.25;6.45;;;3.60;99.90;;;;;;5044680;28;20105;-41
2023/01/29 01:58:38;;;;;;;11.27;6.35;;;3.60;99.90;;;;;;5043585;28;20478;-38
2023/01/29 02:01:06;;;;;;;12.32;6.65;;;3.60;99.90;;;;;;5040186;28;20041;-37
2023/01/29 02:09:31;;;;;;;13.52;7.05;;;3.60;99.90;;;;;;5039995;28;20095;-36
2023/01/29 02:11:56;;;;;;;10.98;6.38;;;3.60;99.90;;;;;;5011198;28;20045;-37
2023/01/29 02:14:22;;;;;;;11.43;6.93;;;3.60;99.90;;;;;;5037239;28;20033;-36
2023/01/29 02:16:48;;;;;;;13.02;6.55;;;3.60;99.90;;;;;;5040886;28;20040;-38
2023/01/29 02:19:33;;;;;;;13.07;6.47;;;3.60;99.90;;;;;;5036818;28;20607;-41
2023/01/29 02:22:16;;;;;;;11.77;6.68;;;3.60;99.90;;;;;;5038291;28;20687;-36
2023/01/29 02:25:09;;;;;;;13.82;6.82;;;3.60;99.90;;;;;;5024248;28;20041;-36
2023/01/29 02:27:46;;;;;;;12.73;6.47;;;3.60;99.90;;;;;;5042148;28;20387;-38
2023/01/29 02:30:12;;;;;;;15.05;7.90;;;3.60;99.90;;;;;;5040349;28;20048;-36
2023/01/29 02:32:53;;;;;;;12.40;6.45;;;3.60;99.90;;;;;;5037800;28;20041;-37
2023/01/29 02:35:33;;;;;;;12.38;6.28;;;3.60;99.90;;;;;;5026519;28;20057;-37
2023/01/29 02:37:59;;;;;;;15.18;7.00;;;3.60;99.90;;;;;;5038826;28;20048;-37
2023/01/29 02:40:49;;;;;;;12.63;6.95;;;3.60;99.90;;;;;;5024100;28;20449;-40
2023/01/29 02:43:40;;;;;;;16.70;7.57;;;3.60;99.90;;;;;;5033826;28;20448;-38
2023/01/29 02:46:13;;;;;;;13.85;7.68;;;3.60;99.90;;;;;;5044383;28;20037;-37
2023/01/29 02:49:11;;;;;;;12.02;7.32;;;3.60;99.90;;;;;;5036947;28;20035;-38
2023/01/29 02:51:48;;;;;;;12.48;6.97;;;3.60;99.90;;;;;;5019041;28;20122;-38
2023/01/29 02:54:26;;;;;;;13.68;7.95;;;3.60;99.90;;;;;;5036939;28;20660;-37
2023/01/29 02:57:03;;;;;;;14.63;6.93;;;3.60;99.90;;;;;;5041936;28;20049;-36
2023/01/29 02:59:41;;;;;;;18.70;7.93;;;3.60;99.90;;;;;;5041753;28;20103;-36
2023/01/29 03:02:16;;;;;;;16.85;8.18;;;3.60;99.90;;;;;;5043041;28;20094;-35
2023/01/29 03:04:47;;;;;;;16.67;7.72;;;3.60;99.90;;;;;;5017461;28;20098;-36
2023/01/29 03:07:43;;;;;;;13.50;7.75;;;3.60;99.90;;;;;;5042549;28;20110;-36
2023/01/29 03:10:17;;;;;;;13.98;8.18;;;3.60;99.90;;;;;;5035392;28;20091;-37
2023/01/29 03:12:45;;;;;;;15.07;8.45;;;3.60;99.90;;;;;;5039309;28;20083;-37
2023/01/29 03:15:17;;;;;;;16.40;8.50;;;3.60;99.90;;;;;;5035804;28;20494;-37
2023/01/29 03:17:53;;;;;;;15.23;8.35;;;3.60;99.90;;;;;;5040115;28;20041;-37
2023/01/29 03:20:25;;;;;;;15.77;8.45;;;3.60;99.90;;;;;;5040359;28;20076;-36
2023/01/29 03:22:56;;;;;;;16.42;9.05;;;3.60;99.90;;;;;;5039330;28;20505;-37
2023/01/29 03:34:15;;;;;;;17.13;8.73;;;3.60;99.90;;;;;;5038970;28;20045;-39
2023/01/29 03:37:02;;;;;;;18.95;10.45;;;3.60;99.90;;;;;;5022544;28;20041;-38
2023/01/29 03:39:28;;;;;;;16.92;9.23;;;3.60;99.90;;;;;;5038104;28;20041;-36
2023/01/29 03:42:15;;;;;;;14.82;8.55;;;3.60;99.90;;;;;;5039839;28;20053;-37
2023/01/29 03:45:21;;;;;;;20.33;10.23;;;3.50;99.90;;;;;;5037028;28;20809;-36
2023/01/29 03:48:18;;;;;;;18.52;10.10;;;3.50;99.90;;;;;;5041130;28;20466;-39
2023/01/29 03:51:20;;;;;;;17.90;10.00;;;3.50;99.90;;;;;;5033127;28;20037;-37
2023/01/29 03:53:57;;;;;;;18.50;10.10;;;3.50;99.90;;;;;;4998827;28;20054;-36
2023/01/29 03:56:44;;;;;;;18.23;10.45;;;3.50;99.90;;;;;;5006393;28;20052;-37
2023/01/29 03:59:29;;;;;;;19.70;10.70;;;3.50;99.90;;;;;;5002497;28;20088;-36
2023/01/29 04:01:59;;;;;;;19.45;10.40;;;3.40;99.90;;;;;;5002024;28;20038;-37
2023/01/29 04:04:37;;;;;;;17.35;9.48;;;3.50;99.90;;;;;;4997252;28;20049;-37
2023/01/29 04:07:12;;;;;;;21.48;10.88;;;3.50;99.90;;;;;;5000665;28;20127;-37
2023/01/29 04:10:30;;;;;;;19.75;10.00;;;3.50;99.90;;;;;;5004606;28;20041;-36
2023/01/29 04:13:03;;;;;;;19.67;10.80;;;3.50;99.90;;;;;;4960481;28;20049;-36
2023/01/29 04:15:32;;;;;;;17.63;10.10;;;3.50;99.90;;;;;;5014700;28;20054;-36
2023/01/29 04:17:58;;;;;;;18.60;10.02;;;3.50;99.90;;;;;;5005230;28;20073;-37
2023/01/29 04:20:25;;;;;;;18.67;11.18;;;3.50;99.90;;;;;;5001979;28;20412;-39
2023/01/29 04:22:51;;;;;;;21.55;11.30;;;3.50;99.90;;;;;;5004065;28;20050;-37
2023/01/29 04:25:25;;;;;;;20.05;11.40;;;3.50;99.90;;;;;;5004149;28;20046;-36
2023/01/29 04:28:03;;;;;;;20.08;11.50;;;3.50;99.90;;;;;;4995418;28;20065;-37
2023/01/29 04:30:41;;;;;;;17.80;10.48;;;3.50;99.90;;;;;;4997934;28;20053;-37
2023/01/29 04:33:30;;;;;;;20.05;10.80;;;3.50;99.90;;;;;;5002942;28;20503;-36
2023/01/29 04:36:13;;;;;;;20.95;11.15;;;3.50;99.90;;;;;;5002679;28;20084;-36
2023/01/29 04:38:57;;;;;;;21.38;11.55;;;3.50;99.90;;;;;;5004307;28;20157;-37
2023/01/29 04:41:30;;;;;;;20.70;10.35;;;3.40;99.90;;;;;;5004227;28;20042;-37
2023/01/29 04:44:30;;;;;;;21.25;10.85;;;3.40;99.90;;;;;;5004039;28;20057;-37
2023/01/29 04:47:19;;;;;;;17.98;11.50;;;3.40;99.90;;;;;;5004998;28;20065;-37
2023/01/29 04:50:01;;;;;;;17.88;10.45;;;3.50;99.90;;;;;;5004576;28;20054;-37
2023/01/29 04:52:33;;;;;;;19.80;11.23;;;3.40;99.90;;;;;;5023991;28;20140;-37
2023/01/29 04:55:34;;;;;;;17.90;11.82;;;3.40;99.90;;;;;;5039770;28;20041;-37
2023/01/29 04:58:09;;;;;;;18.75;10.93;;;3.40;99.90;;;;;;5031038;28;20080;-36
2023/01/29 05:00:43;;;;;;;18.95;10.88;;;3.40;99.90;;;;;;5038104;28;20076;-36
2023/01/29 05:03:14;;;;;;;20.20;11.70;;;3.40;99.90;;;;;;5038675;28;20044;-38
2023/01/29 05:05:44;;;;;;;19.65;10.80;;;3.40;99.90;;;;;;5040598;28;20470;-36
2023/01/29 05:08:12;;;;;;;19.00;11.02;;;3.40;99.90;;;;;;5043352;28;20518;-37
2023/01/29 05:10:38;;;;;;;18.67;10.77;;;3.40;99.90;;;;;;5040531;28;20045;-36
2023/01/29 05:13:07;;;;;;;20.45;11.35;;;3.40;99.90;;;;;;5039285;28;20045;-36
2023/01/29 05:15:39;;;;;;;17.92;10.60;;;3.40;99.90;;;;;;5039248;28;20093;-37
2023/01/29 05:18:07;;;;;;;19.38;10.63;;;3.40;99.90;;;;;;5036740;28;20041;-36
2023/01/29 05:20:35;;;;;;;20.60;11.50;;;3.40;99.90;;;;;;5041281;28;20083;-36
2023/01/29 05:23:01;;;;;;;18.55;10.88;;;3.40;99.90;;;;;;5042447;28;20394;-36
2023/01/29 05:25:30;;;;;;;19.23;11.73;;;3.50;99.90;;;;;;5040909;28;20057;-36
2023/01/29 05:28:06;;;;;;;18.38;10.48;;;3.50;99.90;;;;;;5038993;28;20790;-38
2023/01/29 05:30:36;;;;;;;19.17;9.60;;;3.40;99.90;;;;;;5042216;28;20041;-36
2023/01/29 05:33:03;;;;;;;19.52;11.02;;;3.50;99.90;;;;;;5039930;28;20040;-38
2023/01/29 05:35:29;;;;;;;18.38;10.43;;;3.40;99.90;;;;;;5038722;28;20098;-35
2023/01/29 05:37:55;;;;;;;23.40;11.38;;;3.40;99.90;;;;;;5038885;28;20398;-39
2023/01/29 05:40:22;;;;;;;19.02;10.88;;;3.50;99.90;;;;;;5037781;28;20486;-36
2023/01/29 05:42:49;;;;;;;22.23;11.48;;;3.50;99.90;;;;;;5040702;28;20486;-38
2023/01/29 05:45:14;;;;;;;21.98;11.52;;;3.50;99.90;;;;;;5040465;28;20522;-37
2023/01/29 05:47:40;;;;;;;22.17;11.13;;;3.40;99.90;;;;;;5042224;28;20072;-38
2023/01/29 05:50:07;;;;;;;18.50;11.75;;;3.50;99.90;;;;;;5039020;28;20048;-38
2023/01/29 05:52:32;;;;;;;17.73;10.25;;;3.40;99.90;;;;;;5038850;28;20569;-39
2023/01/29 05:54:58;;;;;;;21.67;11.57;;;3.40;99.90;;;;;;5037538;28;20087;-38
2023/01/29 05:57:23;;;;;;;18.08;10.43;;;3.40;99.90;;;;;;5039011;28;20033;-37
2023/01/29 05:59:49;;;;;;;17.60;10.05;;;3.40;99.90;;;;;;5044849;28;20030;-37
2023/01/29 06:02:15;;;;;;;17.77;10.82;;;3.40;99.90;;;;;;5042072;28;20044;-36
2023/01/29 06:04:40;;;;;;;19.65;10.75;;;3.40;99.90;;;;;;5037035;28;20036;-38
2023/01/29 06:07:06;;;;;;;18.90;11.52;;;3.40;99.90;;;;;;5037714;28;20063;-36
2023/01/29 06:09:32;;;;;;;20.80;11.88;;;3.40;99.90;;;;;;5041489;28;20037;-36
2023/01/29 06:11:57;;;;;;;19.77;10.52;;;3.40;99.90;;;;;;5040158;28;20460;-37
2023/01/29 06:14:23;;;;;;;19.38;10.90;;;3.40;99.90;;;;;;5040883;28;20037;-37
2023/01/29 06:16:49;;;;;;;19.60;11.10;;;3.40;99.90;;;;;;5036845;28;20128;-37
2023/01/29 06:19:14;;;;;;;19.08;11.10;;;3.40;99.90;;;;;;5037253;28;20622;-37
2023/01/29 06:21:40;;;;;;;20.85;12.20;;;3.40;99.90;;;;;;5042390;28;20032;-35
2023/01/29 06:24:06;;;;;;;21.85;11.80;;;3.40;99.90;;;;;;5038551;28;20107;-36
2023/01/29 06:26:32;;;;;;;19.77;11.23;;;3.40;99.90;;;;;;5034991;28;20041;-37
2023/01/29 06:28:57;;;;;;;19.92;11.60;;;3.40;99.90;;;;;;5035816;28;20037;-39
2023/01/29 06:31:23;;;;;;;18.50;10.27;;;3.40;99.90;;;;;;5036218;28;20452;-38
2023/01/29 06:33:49;;;;;;;18.35;11.48;;;3.40;99.90;;;;;;5038131;28;20048;-37
2023/01/29 06:36:14;;;;;;;22.05;13.00;;;3.40;99.90;;;;;;5039220;28;20044;-38
2023/01/29 06:38:40;;;;;;;19.98;11.05;;;3.40;99.90;;;;;;5042314;28;20127;-39
2023/01/29 06:41:15;;;;;;;29.92;11.80;;;3.40;99.90;;;;;;5039736;28;20478;-37
2023/01/29 06:43:44;;;;;;;17.65;10.35;;;3.40;99.90;;;;;;5043840;28;20499;-37
2023/01/29 06:46:09;;;;;;;21.30;11.88;;;3.40;99.90;;;;;;5035153;28;20040;-38
2023/01/29 06:48:35;;;;;;;21.25;11.75;;;3.40;99.90;;;;;;5042032;28;20391;-36
2023/01/29 06:51:05;;;;;;;22.17;11.00;;;3.40;99.90;;;;;;5042261;28;20824;-37
2023/01/29 06:53:32;;;;;;;19.73;12.20;;;3.40;99.90;;;;;;5035280;28;20502;-37
2023/01/29 06:55:58;;;;;;;25.55;12.13;;;3.40;99.90;;;;;;5035293;28;20040;-36
2023/01/29 06:58:24;;;;;;;20.00;11.70;;;3.40;99.90;;;;;;5041923;28;20509;-37
2023/01/29 07:00:50;;;;;;;21.60;12.23;;;3.40;99.90;;;;;;5019883;28;20060;-37
2023/01/29 07:03:16;;;;;;;25.70;13.35;;;3.40;99.90;;;;;;5040494;28;20033;-37
2023/01/29 07:05:41;;;;;;;24.77;12.95;;;3.40;99.90;;;;;;5038539;28;20033;-36
2023/01/29 07:08:08;;;;;;;21.50;12.02;;;3.40;99.90;;;;;;5040790;28;20450;-36
2023/01/29 07:10:34;;;;;;;24.52;13.25;;;3.50;99.90;;;;;;5038532;28;20509;-38
2023/01/29 07:13:00;;;;;;;21.27;11.90;;;3.50;99.90;;;;;;5040116;28;20124;-38
2023/01/29 07:15:26;;;;;;;23.80;13.07;;;3.50;99.90;;;;;;5041437;28;20202;-38
2023/01/29 07:17:59;;;;;;;23.23;13.13;;;3.50;99.90;;;;;;5043203;28;20045;-37
2023/01/29 07:20:29;;;;;;;27.00;12.25;;;3.40;99.90;;;;;;5036119;28;20112;-38
2023/01/29 07:22:58;;;;;;;22.35;12.80;;;3.40;99.90;;;;;;5037261;28;20840;-36
2023/01/29 07:25:24;;;;;;;24.67;12.73;;;3.40;99.90;;;;;;5037655;28;20063;-37
2023/01/29 07:27:50;;;;;;;19.88;10.43;;;3.50;99.90;;;;;;5039904;28;20041;-36
2023/01/29 07:30:16;;;;;;;25.08;13.07;;;3.50;99.90;;;;;;5036594;28;20091;-42
2023/01/29 07:32:42;;;;;;;22.38;12.13;;;3.50;99.90;;;;;;5035311;28;20115;-39
2023/01/29 07:35:09;;;;;;;21.52;11.52;;;3.40;99.90;;;;;;5041793;28;20517;-39
2023/01/29 07:37:35;;;;;;;18.65;10.45;;;3.50;99.90;;;;;;5019601;28;20144;-36
2023/01/29 07:40:00;;;;;;;23.42;12.95;;;3.50;99.90;;;;;;5036777;28;20112;-37
2023/01/29 07:42:26;;;;;;;22.90;12.13;;;3.50;99.90;;;;;;5036958;28;20029;-37
2023/01/29 07:44:52;;;;;;;24.02;12.95;;;3.50;99.90;;;;;;5038240;28;20033;-36
2023/01/29 07:47:17;;;;;;;24.70;13.25;;;3.50;99.90;;;;;;5039400;28;20373;-38
2023/01/29 07:49:43;;;;;;;25.50;12.63;;;3.50;99.90;;;;;;5044659;28;20147;-38
2023/01/29 07:52:09;;;;;;;23.95;11.77;;;3.50;99.90;;;;;;5038917;28;20157;-36
2023/01/29 07:54:34;;;;;;;22.08;11.38;;;3.50;99.90;;;;;;5038490;28;20478;-36
2023/01/29 07:57:00;;;;;;;25.90;11.90;;;3.50;99.90;;;;;;5042894;28;20041;-40
2023/01/29 07:59:26;;;;;;;24.38;11.95;;;3.50;99.90;;;;;;5038947;28;20486;-37
2023/01/29 08:01:51;;;;;;;23.25;13.02;;;3.50;99.90;;;;;;5039106;28;20549;-36
2023/01/29 08:04:17;;;;;;;21.27;11.75;;;3.50;99.90;;;;;;5037711;28;20033;-39
2023/01/29 08:06:43;;;;;;;23.40;12.85;;;3.50;99.90;;;;;;5037656;28;20038;-36
2023/01/29 08:09:09;;;;;;;21.98;12.07;;;3.50;99.90;;;;;;5037964;28;20044;-36
2023/01/29 08:11:35;;;;;;;22.73;12.30;;;3.50;99.90;;;;;;5037015;28;20041;-37
2023/01/29 08:14:00;;;;;;;24.95;12.93;;;3.50;99.90;;;;;;5040507;28;20112;-36
2023/01/29 08:16:26;;;;;;;20.60;11.25;;;3.50;99.90;;;;;;5036055;28;20076;-36
2023/01/29 08:18:52;;;;;;;23.63;12.52;;;3.50;99.90;;;;;;5037894;28;20412;-37
2023/01/29 08:21:17;;;;;;;20.50;11.80;;;3.50;99.90;;;;;;5034652;28;20041;-39
2023/01/29 08:23:43;;;;;;;23.13;12.70;;;3.60;99.90;;;;;;5040218;28;20772;-36
2023/01/29 08:26:09;;;;;;;21.88;11.98;;;3.60;99.90;;;;;;5043260;28;20428;-38
2023/01/29 08:28:36;;;;;;;21.55;11.70;;;3.60;99.90;;;;;;5039242;28;20123;-37
2023/01/29 08:31:02;;;;;;;20.65;11.15;;;3.60;99.90;;;;;;5038496;28;20044;-37
2023/01/29 08:33:28;;;;;;;22.75;12.85;;;3.60;99.90;;;;;;5034506;28;20489;-37
2023/01/29 08:35:54;;;;;;;22.95;11.55;;;3.60;99.90;;;;;;5039812;28;20151;-40
2023/01/29 08:38:19;;;;;;;22.00;11.40;;;3.60;99.90;;;;;;5041044;28;20049;-37
2023/01/29 08:40:45;;;;;;;21.38;11.43;;;3.60;99.90;;;;;;5038994;28;20029;-36
2023/01/29 08:43:12;;;;;;;20.10;11.48;;;3.70;99.90;;;;;;5038925;28;20074;-36
2023/01/29 08:45:41;;;;;;;20.35;10.60;;;3.70;99.90;;;;;;5034708;28;20101;-40
2023/01/29 08:48:07;;;;;;;23.00;12.68;;;3.70;99.90;;;;;;5010688;28;20048;-36
2023/01/29 08:50:34;;;;;;;20.77;11.55;;;3.70;99.90;;;;;;5041505;28;20056;-37
2023/01/29 08:53:02;;;;;;;22.25;12.02;;;3.70;99.90;;;;;;5038724;28;20107;-37
2023/01/29 08:55:28;;;;;;;21.55;11.65;;;3.80;99.90;;;;;;5034847;28;20040;-40
2023/01/29 08:57:56;;;;;;;19.80;11.05;;;3.80;99.90;;;;;;5041656;28;20032;-38
2023/01/29 09:00:22;;;;;;;23.00;11.73;;;3.80;99.90;;;;;;5041004;28;21284;-38
2023/01/29 09:02:48;;;;;;;20.70;11.75;;;3.80;99.90;;;;;;5042373;28;20082;-39
2023/01/29 09:05:13;;;;;;;21.95;12.43;;;3.80;99.90;;;;;;5034516;28;20087;-38
2023/01/29 09:07:39;;;;;;;21.17;11.73;;;3.80;99.90;;;;;;5038617;28;20106;-37
2023/01/29 09:10:05;;;;;;;22.30;11.63;;;3.80;99.90;;;;;;5039906;28;20825;-37
2023/01/29 09:12:31;;;;;;;22.27;11.95;;;3.90;99.90;;;;;;5043013;28;20055;-38
2023/01/29 09:14:57;;;;;;;22.98;11.13;;;3.90;99.90;;;;;;5039925;28;20033;-38
2023/01/29 09:17:22;;;;;;;23.92;12.77;;;3.90;99.90;;;;;;5042191;28;20048;-38
2023/01/29 09:19:48;;;;;;;22.13;11.20;;;4.00;99.90;;;;;;5045834;28;20131;-38
2023/01/29 09:22:14;;;;;;;20.75;11.63;;;4.00;99.90;;;;;;5042741;28;20043;-36
2023/01/29 09:24:39;;;;;;;20.13;11.98;;;4.10;99.90;;;;;;5041988;28;20056;-41
2023/01/29 09:27:05;;;;;;;24.90;12.50;;;4.10;99.90;;;;;;5041949;28;20045;-41
2023/01/29 09:29:31;;;;;;;23.75;12.43;;;4.20;99.90;;;;;;5042753;28;20036;-47
2023/01/29 09:31:57;;;;;;;19.55;10.85;;;4.20;99.90;;;;;;5041121;28;20056;-38
2023/01/29 09:34:22;;;;;;;21.30;11.48;;;4.20;99.90;;;;;;5039857;28;20044;-43
2023/01/29 09:36:48;;;;;;;22.02;12.27;;;4.20;99.90;;;;;;5041963;28;20040;-41
2023/01/29 09:39:14;;;;;;;21.33;11.38;;;4.30;99.90;;;;;;5045729;28;20609;-41
2023/01/29 09:41:57;;;;;;;20.50;11.43;;;4.30;99.90;;;;;;5041708;28;20037;-44
2023/01/29 09:44:45;;;;;;;20.45;11.68;;;4.40;99.90;;;;;;5038134;28;20038;-39
2023/01/29 09:47:14;;;;;;;21.38;12.38;;;4.40;99.90;;;;;;5045028;28;20082;-39
2023/01/29 09:49:50;;;;;;;21.52;11.57;;;4.40;99.90;;;;;;5035012;28;20406;-41
2023/01/29 09:52:19;;;;;;;20.58;11.40;;;4.50;99.90;;;;;;5023079;28;20150;-38
2023/01/29 09:55:18;;;;;;;23.45;12.30;;;4.50;99.90;;;;;;5042932;28;20575;-41
2023/01/29 09:57:48;;;;;;;21.13;11.45;;;4.50;99.90;;;;;;5026362;28;20332;-43
2023/01/29 10:00:53;;;;;;;19.15;11.02;;;4.50;99.90;;;;;;5042111;28;20041;-42
2023/01/29 10:03:45;;;;;;;19.80;11.18;;;4.50;99.90;;;;;;5027464;28;21278;-53
2023/01/29 10:06:22;;;;;;;21.33;12.18;;;4.60;99.90;;;;;;5037429;28;20055;-43
2023/01/29 10:08:51;;;;;;;25.00;11.93;;;4.60;99.90;;;;;;5039170;28;20037;-42
2023/01/29 10:11:30;;;;;;;21.10;12.10;;;4.60;99.90;;;;;;5035531;28;20064;-38
2023/01/29 10:14:29;;;;;;;21.50;12.02;;;4.70;99.90;;;;;;5041208;28;20534;-38
2023/01/29 10:17:23;;;;;;;21.98;11.55;;;4.70;99.90;;;;;;5040535;28;20508;-39
2023/01/29 10:20:01;;;;;;;;;;;4.70;99.90;;;;;;5041521;28;20120;-38
2023/01/29 10:23:00;;;;;;;18.50;9.52;;;4.70;99.90;;;;;;5039321;28;19971;-38
2023/01/29 10:25:26;;;;;;;20.98;11.05;;;4.70;99.90;;;;;;5043135;28;20040;-38
2023/01/29 10:27:58;;;;;;;22.48;12.77;;;4.80;99.90;;;;;;5036696;28;20037;-40
2023/01/29 10:30:32;;;;;;;21.98;11.85;;;4.80;99.90;;;;;;5038374;28;20049;-38
2023/01/29 10:33:02;;;;;;;17.50;10.95;;;4.80;99.90;;;;;;5040580;28;20548;-37
2023/01/29 10:35:33;;;;;;;19.67;11.05;;;4.80;99.90;;;;;;5043562;28;20799;-38
2023/01/29 10:38:13;;;;;;;18.15;10.57;;;4.80;99.90;;;;;;5035161;28;20511;-38
2023/01/29 10:41:02;;;;;;;20.60;12.40;;;4.80;99.90;;;;;;5038396;28;20549;-36
2023/01/29 10:43:39;;;;;;;21.40;12.20;;;4.80;99.90;;;;;;5032161;28;20080;-36
2023/01/29 10:46:30;;;;;;;16.60;9.82;;;4.80;99.90;;;;;;5042711;28;20513;-37
2023/01/29 10:49:02;;;;;;;21.02;11.48;;;4.80;99.90;;;;;;5043286;28;20123;-38
2023/01/29 10:51:46;;;;;;;19.50;11.90;;;4.70;99.90;;;;;;5038798;28;20522;-37
2023/01/29 10:54:21;;;;;;;21.95;12.27;;;4.80;99.90;;;;;;5041818;28;20044;-38
2023/01/29 10:57:03;;;;;;;21.48;12.25;;;4.80;99.90;;;;;;5040337;28;20055;-36
2023/01/29 10:59:53;;;;;;;20.53;11.73;;;4.80;99.90;;;;;;5041258;28;20113;-37
2023/01/29 11:02:21;;;;;;;19.13;11.30;;;4.80;99.90;;;;;;5039929;28;20565;-36
2023/01/29 11:04:47;;;;;;;22.33;11.65;;;4.80;99.90;;;;;;5030509;28;20678;-38
2023/01/29 11:07:16;;;;;;;19.27;11.38;;;4.90;99.90;;;;;;5048286;28;20036;-37
2023/01/29 11:09:53;;;;;;;27.05;12.43;;;4.90;99.90;;;;;;5077485;28;20041;-36
2023/01/29 11:12:26;;;;;;;19.83;11.45;;;4.90;99.90;;;;;;5074858;28;20055;-37
2023/01/29 11:14:58;;;;;;;;;;;4.90;99.90;;;;;;5072856;28;20188;-37
2023/01/29 11:17:25;;;;;;;18.42;10.20;;;4.90;99.90;;;;;;5075868;28;19935;-37
2023/01/29 11:19:54;;;;;;;20.45;10.75;;;4.90;99.90;;;;;;5076921;28;20035;-37
2023/01/29 11:22:25;;;;;;;19.25;11.25;;;4.90;99.90;;;;;;5071169;28;20040;-38
2023/01/29 11:25:14;;;;;;;19.88;11.75;;;4.90;99.90;;;;;;5071499;28;20036;-38
2023/01/29 11:27:45;;;;;;;24.90;12.38;;;4.90;99.90;;;;;;5067270;28;20044;-38
2023/01/29 11:30:19;;;;;;;20.05;11.85;;;5.00;99.90;;;;;;5067157;28;20040;-38
2023/01/29 11:32:50;;;;;;;20.77;10.98;;;5.00;99.90;;;;;;5068353;28;20047;-37
2023/01/29 11:35:15;;;;;;;18.67;10.45;;;5.10;99.90;;;;;;5077356;28;20040;-36
2023/01/29 11:37:43;;;;;;;19.00;10.57;;;5.10;99.90;;;;;;5073842;28;20044;-38
2023/01/29 11:40:18;;;;;;;19.00;11.45;;;5.10;99.90;;;;;;5077294;28;20074;-37
2023/01/29 11:42:47;;;;;;;18.38;10.10;;;5.10;99.90;;;;;;5072879;28;20459;-38
2023/01/29 11:45:19;;;;;;;19.77;10.45;;;5.00;99.90;;;;;;5075778;28;20070;-37
2023/01/29 11:47:49;;;;;;;17.23;10.27;;;5.00;99.90;;;;;;5074946;28;20040;-40
2023/01/29 11:50:25;;;;;;;19.40;11.27;;;5.00;99.90;;;;;;5074841;28;20127;-37
2023/01/29 11:52:50;;;;;;;18.40;10.35;;;4.90;99.90;;;;;;5082270;28;20117;-39
2023/01/29 11:55:28;;;;;;;18.52;10.98;;;4.90;99.90;;;;;;5080772;28;20037;-38
2023/01/29 11:58:11;;;;;;;21.23;11.57;;;4.90;99.90;;;;;;5073986;28;20044;-43
2023/01/29 12:00:40;;;;;;;18.85;10.57;;;4.80;99.90;;;;;;5077697;28;20040;-37
2023/01/29 12:03:06;;;;;;;22.45;11.10;;;4.80;99.90;;;;;;5077612;28;20044;-36
2023/01/29 12:05:32;;;;;;;20.70;10.95;;;4.80;99.90;;;;;;5075138;28;20392;-45
2023/01/29 12:08:00;;;;;;;22.25;11.98;;;4.80;99.90;;;;;;5076533;28;20127;-38
2023/01/29 12:10:39;;;;;;;18.10;9.60;;;4.80;99.90;;;;;;5071481;28;20047;-37
2023/01/29 12:13:09;;;;;;;20.27;11.13;;;4.80;99.90;;;;;;5076108;28;20043;-37
2023/01/29 12:15:40;;;;;;;19.30;11.13;;;4.80;99.90;;;;;;5078137;28;20524;-38
2023/01/29 12:18:17;;;;;;;23.85;12.00;;;4.70;99.90;;;;;;5079460;28;20180;-37
2023/01/29 12:20:49;;;;;;;21.02;11.77;;;4.70;99.90;;;;;;5077741;28;20572;-39
2023/01/29 12:23:35;;;;;;;16.63;9.63;;;4.80;99.90;;;;;;5079824;28;20419;-37
2023/01/29 12:26:30;;;;;;;22.98;11.77;;;4.80;99.90;;;;;;5080182;28;20028;-38
2023/01/29 12:29:17;;;;;;;23.38;11.45;;;4.80;99.90;;;;;;5065179;28;20153;-37
2023/01/29 12:31:57;;;;;;;18.48;9.85;;;4.80;99.90;;;;;;5080139;28;20097;-40
2023/01/29 12:34:30;;;;;;;22.30;11.85;;;4.70;99.90;;;;;;5081557;28;20048;-37
2023/01/29 12:37:11;;;;;;;20.63;10.02;;;4.70;99.90;;;;;;5081460;28;20032;-37
2023/01/29 12:39:36;;;;;;;25.20;12.30;;;4.70;99.90;;;;;;5075935;28;20452;-38
2023/01/29 12:42:18;;;;;;;19.48;11.60;;;4.70;99.90;;;;;;5080598;28;20040;-39
2023/01/29 12:44:49;;;;;;;21.10;11.75;;;4.60;99.90;;;;;;5082987;28;20044;-45
2023/01/29 12:47:30;;;;;;;21.00;11.65;;;4.60;99.90;;;;;;5080838;28;20059;-38
2023/01/29 12:49:59;;;;;;;21.40;12.35;;;4.60;99.90;;;;;;5076317;28;20052;-37
2023/01/29 12:52:40;;;;;;;23.02;11.63;;;4.60;99.90;;;;;;5080272;28;20464;-38
2023/01/29 12:55:31;;;;;;;22.63;12.95;;;4.60;99.90;;;;;;5080967;28;20061;-41
2023/01/29 12:58:03;;;;;;;21.55;11.32;;;4.60;99.90;;;;;;5081416;28;20040;-38
2023/01/29 13:00:52;;;;;;;21.85;11.35;;;4.60;99.90;;;;;;5087310;28;20123;-36
2023/01/29 13:03:42;;;;;;;21.52;11.27;;;4.60;99.90;;;;;;5083536;28;20485;-38
2023/01/29 13:06:20;;;;;;;20.55;12.45;;;4.50;99.90;;;;;;5083712;28;20093;-36
2023/01/29 13:08:52;;;;;;;21.77;11.77;;;4.50;99.90;;;;;;5079318;28;20524;-38
2023/01/29 13:11:45;;;;;;;24.50;12.68;;;4.50;99.90;;;;;;5084823;28;20114;-38
2023/01/29 13:14:30;;;;;;;23.75;11.70;;;4.50;99.90;;;;;;5080540;28;20043;-37
2023/01/29 13:17:12;;;;;;;23.75;13.13;;;4.40;99.90;;;;;;5078513;28;20501;-39
2023/01/29 13:19:44;;;;;;;22.02;11.75;;;4.40;99.90;;;;;;5081642;28;20044;-37
2023/01/29 13:22:22;;;;;;;23.52;13.75;;;4.50;99.90;;;;;;5079452;28;20097;-38
2023/01/29 13:24:48;;;;;;;22.45;12.60;;;4.50;99.90;;;;;;5079850;28;20040;-38
2023/01/29 13:27:26;;;;;;;26.15;14.07;;;4.50;99.90;;;;;;5077767;28;20036;-36
2023/01/29 13:29:54;;;;;;;22.40;12.77;;;4.60;99.90;;;;;;5078554;28;20041;-37